createdAt,value
2023-02-15T00:01:33.531Z,28.40
2023-02-15T00:04:02.261Z,26.87
2023-02-15T00:06:31.012Z,27.23
2023-02-15T00:09:01.063Z,28.33
2023-02-15T00:11:41.767Z,26.37
2023-02-15T00:14:11.997Z,26.47
2023-02-15T00:16:43.573Z,27.57
2023-02-15T00:19:15.106Z,26.03
2023-02-15T00:21:44.149Z,24.87
2023-02-15T00:24:14.836Z,24.47
2023-02-15T00:26:44.416Z,23.13
2023-02-15T00:29:14.102Z,25.50
2023-02-15T00:31:44.500Z,24.60
2023-02-15T00:34:15.148Z,25.37
2023-02-15T00:36:44.159Z,25.07
2023-02-15T00:39:13.466Z,25.47
2023-02-15T00:41:42.533Z,23.33
2023-02-15T00:44:11.345Z,25.13
2023-02-15T00:46:40.432Z,24.80
2023-02-15T00:49:11.302Z,26.73
2023-02-15T00:51:40.510Z,19.97
2023-02-15T00:54:09.421Z,24.07
2023-02-15T00:56:38.155Z,23.67
2023-02-15T00:59:07.723Z,24.40
2023-02-15T01:01:37.074Z,24.23
2023-02-15T01:04:05.962Z,23.33
2023-02-15T01:06:36.069Z,22.87
2023-02-15T01:09:04.926Z,25.07
2023-02-15T01:11:33.818Z,25.80
2023-02-15T01:14:04.206Z,24.30
2023-02-15T01:16:35.088Z,24.97
2023-02-15T01:19:04.790Z,23.33
2023-02-15T01:21:35.516Z,22.20
2023-02-15T01:24:06.070Z,24.77
2023-02-15T01:26:34.809Z,20.03
2023-02-15T01:29:03.583Z,24.70
2023-02-15T01:31:32.380Z,22.60
2023-02-15T01:34:01.160Z,23.60
2023-02-15T01:36:29.785Z,23.43
2023-02-15T01:38:58.488Z,24.30
2023-02-15T01:41:28.746Z,22.90
2023-02-15T01:43:59.354Z,24.37
2023-02-15T01:46:33.047Z,24.10
2023-02-15T01:49:12.817Z,22.77
2023-02-15T01:51:43.389Z,22.53
2023-02-15T01:54:20.818Z,23.73
2023-02-15T01:56:51.571Z,22.73
2023-02-15T01:59:23.851Z,23.23
2023-02-15T02:01:54.636Z,22.03
2023-02-15T02:04:31.961Z,22.30
2023-02-15T02:07:02.237Z,21.13
2023-02-15T02:09:31.903Z,20.40
2023-02-15T02:12:03.001Z,20.87
2023-02-15T02:14:32.148Z,22.83
2023-02-15T02:17:10.288Z,19.20
2023-02-15T02:20:17.666Z,20.40
2023-02-15T02:23:18.997Z,22.27
2023-02-15T02:26:10.333Z,20.17
2023-02-15T02:29:10.879Z,19.90
2023-02-15T02:32:02.122Z,19.53
2023-02-15T02:34:36.465Z,18.77
2023-02-15T02:37:14.546Z,19.17
2023-02-15T02:39:52.091Z,21.03
2023-02-15T02:42:31.490Z,21.77
2023-02-15T02:45:05.795Z,19.20
2023-02-15T02:47:40.085Z,19.93
2023-02-15T02:50:14.471Z,16.33
2023-02-15T02:52:45.617Z,20.33
2023-02-15T02:55:18.886Z,20.67
2023-02-15T02:57:55.714Z,18.90
2023-02-15T03:00:28.059Z,22.17
2023-02-15T03:03:06.404Z,18.57
2023-02-15T03:05:40.659Z,19.57
2023-02-15T03:08:11.051Z,19.60
2023-02-15T03:10:41.220Z,19.80
2023-02-15T03:13:11.016Z,18.90
2023-02-15T03:15:59.984Z,18.63
2023-02-15T03:18:36.848Z,18.53
2023-02-15T03:21:09.784Z,18.83
2023-02-15T03:23:40.226Z,18.53
2023-02-15T03:26:12.164Z,19.27
2023-02-15T03:28:44.413Z,19.67
2023-02-15T03:31:15.827Z,17.90
2023-02-15T03:33:49.982Z,17.97
2023-02-15T03:36:24.996Z,20.63
2023-02-15T03:39:00.898Z,17.83
2023-02-15T03:41:33.707Z,20.83
2023-02-15T03:44:07.445Z,17.83
2023-02-15T03:46:45.082Z,18.73
2023-02-15T03:49:20.049Z,19.83
2023-02-15T03:51:52.617Z,19.17
2023-02-15T03:54:46.993Z,19.87
2023-02-15T03:57:36.699Z,18.23
2023-02-15T04:00:28.726Z,19.40
2023-02-15T04:03:19.717Z,18.10
2023-02-15T04:05:50.480Z,17.67
2023-02-15T04:08:21.677Z,18.63
2023-02-15T04:10:56.077Z,18.83
2023-02-15T04:13:26.478Z,17.70
2023-02-15T04:16:04.617Z,17.67
2023-02-15T04:18:52.817Z,19.73
2023-02-15T04:21:41.060Z,18.17
2023-02-15T04:24:29.406Z,17.13
2023-02-15T04:26:58.416Z,16.70
2023-02-15T04:29:28.238Z,17.87
2023-02-15T04:31:59.989Z,19.43
2023-02-15T04:34:28.784Z,18.10
2023-02-15T04:36:57.438Z,12.33
2023-02-15T04:39:27.486Z,18.47
2023-02-15T04:41:56.470Z,16.00
2023-02-15T04:44:25.179Z,19.43
2023-02-15T04:46:53.828Z,14.67
2023-02-15T04:49:22.492Z,17.83
2023-02-15T04:51:51.148Z,16.80
2023-02-15T04:54:19.976Z,18.87
2023-02-15T04:56:50.310Z,18.63
2023-02-15T04:59:19.612Z,17.73
2023-02-15T05:01:48.296Z,17.33
2023-02-15T05:04:17.409Z,17.50
2023-02-15T05:06:46.286Z,16.67
2023-02-15T05:09:15.756Z,18.47
2023-02-15T05:11:44.562Z,15.87
2023-02-15T05:14:14.898Z,17.33
2023-02-15T05:16:43.634Z,16.80
2023-02-15T05:19:12.856Z,18.43
2023-02-15T05:21:41.560Z,17.00
2023-02-15T05:24:24.024Z,18.63
2023-02-15T05:27:11.384Z,16.67
2023-02-15T05:29:41.673Z,16.53
2023-02-15T05:32:10.579Z,15.73
2023-02-15T05:34:39.428Z,19.30
2023-02-15T05:37:08.624Z,17.37
2023-02-15T05:39:37.323Z,17.43
2023-02-15T05:42:08.387Z,17.40
2023-02-15T05:44:37.059Z,17.53
2023-02-15T05:47:08.698Z,17.53
2023-02-15T05:49:37.350Z,16.40
2023-02-15T05:52:06.424Z,17.50
2023-02-15T05:54:35.171Z,18.10
2023-02-15T05:57:03.883Z,13.47
2023-02-15T05:59:32.605Z,16.37
2023-02-15T06:02:01.636Z,17.10
2023-02-15T06:04:32.156Z,18.23
2023-02-15T06:07:01.047Z,16.30
2023-02-15T06:09:30.142Z,16.63
2023-02-15T06:11:58.847Z,15.73
2023-02-15T06:14:27.717Z,18.43
2023-02-15T06:16:56.433Z,14.57
2023-02-15T06:19:25.067Z,18.30
2023-02-15T06:21:55.087Z,18.83
2023-02-15T06:24:23.776Z,18.57
2023-02-15T06:26:52.424Z,16.57
2023-02-15T06:29:21.017Z,17.70
2023-02-15T06:31:50.242Z,16.27
2023-02-15T06:34:19.130Z,15.73
2023-02-15T06:36:51.006Z,16.60
2023-02-15T06:39:21.042Z,17.20
2023-02-15T06:41:49.820Z,17.37
2023-02-15T06:44:18.609Z,17.10
2023-02-15T06:46:47.557Z,16.27
2023-02-15T06:49:16.176Z,13.27
2023-02-15T06:51:44.913Z,13.90
2023-02-15T06:54:13.521Z,16.13
2023-02-15T06:56:44.577Z,9.93
2023-02-15T06:59:13.357Z,17.47
2023-02-15T07:01:42.034Z,16.67
2023-02-15T07:04:10.646Z,18.00
2023-02-15T07:06:39.372Z,20.23
2023-02-15T07:09:07.990Z,18.83
2023-02-15T07:11:54.367Z,21.47
2023-02-15T07:14:24.615Z,20.20
2023-02-15T07:16:53.424Z,19.33
2023-02-15T07:19:22.842Z,15.80
2023-02-15T07:21:51.481Z,17.33
2023-02-15T07:24:22.787Z,16.43
2023-02-15T07:26:51.525Z,17.03
2023-02-15T07:29:20.897Z,16.93
2023-02-15T07:31:50.985Z,19.03
2023-02-15T07:34:19.880Z,18.13
2023-02-15T07:36:48.747Z,16.40
2023-02-15T07:39:17.496Z,17.90
2023-02-15T07:41:46.087Z,16.87
2023-02-15T07:44:15.509Z,17.40
2023-02-15T07:46:44.220Z,15.97
2023-02-15T07:49:14.236Z,17.47
2023-02-15T07:51:43.031Z,18.80
2023-02-15T07:54:11.668Z,17.97
2023-02-15T07:56:40.381Z,18.70
2023-02-15T07:59:10.046Z,17.93
2023-02-15T08:01:40.801Z,20.67
2023-02-15T08:04:12.075Z,19.23
2023-02-15T08:06:42.179Z,20.03
2023-02-15T08:09:11.827Z,18.17
2023-02-15T08:11:41.939Z,15.53
2023-02-15T08:14:12.612Z,17.87
2023-02-15T08:16:42.959Z,20.23
2023-02-15T08:19:13.470Z,17.43
2023-02-15T08:21:45.823Z,18.63
2023-02-15T08:24:16.366Z,16.77
2023-02-15T08:26:46.210Z,19.43
2023-02-15T08:29:16.377Z,21.67
2023-02-15T08:31:45.474Z,19.73
2023-02-15T08:34:17.747Z,20.30
2023-02-15T08:36:48.207Z,21.53
2023-02-15T08:39:17.866Z,20.93
2023-02-15T08:41:47.580Z,19.33
2023-02-15T08:44:18.389Z,20.93
2023-02-15T08:46:48.694Z,22.87
2023-02-15T08:49:20.123Z,17.50
2023-02-15T08:51:51.162Z,22.90
2023-02-15T08:54:22.844Z,23.93
2023-02-15T08:56:51.872Z,23.63
2023-02-15T08:59:22.757Z,17.63
2023-02-15T09:01:53.366Z,23.03
2023-02-15T09:04:23.691Z,24.97
2023-02-15T09:06:54.290Z,25.57
2023-02-15T09:09:23.816Z,26.87
2023-02-15T09:11:58.793Z,25.03
2023-02-15T09:14:28.793Z,28.90
2023-02-15T09:16:57.815Z,20.67
2023-02-15T09:19:26.931Z,26.17
2023-02-15T09:21:56.943Z,24.60
2023-02-15T09:24:25.622Z,25.83
2023-02-15T09:26:54.178Z,24.27
2023-02-15T09:29:23.740Z,22.70
2023-02-15T09:31:54.586Z,23.80
2023-02-15T09:34:24.341Z,24.17
2023-02-15T09:36:53.520Z,27.23
2023-02-15T09:39:25.744Z,23.97
2023-02-15T09:42:30.090Z,26.07
2023-02-15T09:45:22.716Z,21.00
2023-02-15T09:48:28.736Z,25.07
2023-02-15T09:51:08.610Z,23.40
2023-02-15T09:53:56.766Z,21.90
2023-02-15T09:56:37.901Z,24.53
2023-02-15T09:59:16.067Z,16.67
2023-02-15T10:01:55.752Z,26.23
2023-02-15T10:05:02.804Z,26.07
2023-02-15T10:07:57.826Z,23.90
2023-02-15T10:10:34.502Z,26.90
2023-02-15T10:13:20.922Z,24.83
2023-02-15T10:15:58.272Z,23.53
2023-02-15T10:18:42.970Z,21.90
2023-02-15T10:21:22.348Z,22.67
2023-02-15T10:24:10.635Z,23.07
2023-02-15T10:26:45.171Z,23.30
2023-02-15T10:29:27.898Z,18.80
2023-02-15T10:32:05.878Z,25.67
2023-02-15T10:34:40.282Z,27.83
2023-02-15T10:37:26.234Z,20.23
2023-02-15T10:40:04.305Z,20.43
2023-02-15T10:42:44.448Z,28.70
2023-02-15T10:45:26.078Z,22.30
2023-02-15T10:48:12.908Z,23.67
2023-02-15T10:50:51.626Z,24.27
2023-02-15T10:53:41.590Z,19.80
2023-02-15T10:56:21.468Z,24.90
2023-02-15T10:59:01.440Z,21.63
2023-02-15T11:01:36.982Z,22.90
2023-02-15T11:04:29.723Z,21.73
2023-02-15T11:07:02.110Z,20.93
2023-02-15T11:09:41.173Z,24.93
2023-02-15T11:12:13.830Z,19.43
2023-02-15T11:14:49.072Z,22.57
2023-02-15T11:17:24.182Z,20.80
2023-02-15T11:19:59.323Z,19.43
2023-02-15T11:22:28.231Z,21.80
2023-02-15T11:24:58.607Z,21.30
2023-02-15T11:27:31.536Z,21.23
2023-02-15T11:30:04.634Z,19.63
2023-02-15T11:32:37.720Z,21.67
2023-02-15T11:35:13.807Z,21.33
2023-02-15T11:37:48.061Z,19.77
2023-02-15T11:40:26.722Z,22.97
2023-02-15T11:42:58.473Z,21.77
2023-02-15T11:45:30.464Z,24.27
2023-02-15T11:48:01.520Z,19.93
2023-02-15T11:50:33.192Z,23.33
2023-02-15T11:53:05.263Z,20.37
2023-02-15T11:55:36.114Z,22.67
2023-02-15T11:58:09.763Z,22.53
2023-02-15T12:00:43.532Z,22.97
2023-02-15T12:03:17.211Z,22.10
2023-02-15T12:05:49.930Z,21.83
2023-02-15T12:08:21.177Z,23.90
2023-02-15T12:11:00.870Z,21.93
2023-02-15T12:13:31.086Z,26.10
2023-02-15T12:16:06.886Z,21.83
2023-02-15T12:18:42.555Z,23.83
2023-02-15T12:21:16.353Z,22.73
2023-02-15T12:23:50.343Z,22.43
2023-02-15T12:26:27.104Z,22.13
2023-02-15T12:28:58.996Z,22.67
2023-02-15T12:31:33.935Z,24.30
2023-02-15T12:34:13.964Z,21.60
2023-02-15T12:36:46.785Z,23.77
2023-02-15T12:39:26.651Z,22.20
2023-02-15T12:42:08.418Z,22.47
2023-02-15T12:44:38.514Z,26.07
2023-02-15T12:47:08.590Z,22.30
2023-02-15T12:49:39.418Z,25.33
2023-02-15T12:52:24.721Z,24.33
2023-02-15T12:54:53.621Z,23.20
2023-02-15T12:57:28.062Z,22.50
2023-02-15T12:59:59.248Z,22.97
2023-02-15T13:02:31.910Z,27.63
2023-02-15T13:05:17.489Z,25.03
2023-02-15T13:07:51.427Z,25.00
2023-02-15T13:10:29.325Z,24.60
2023-02-15T13:12:59.008Z,25.23
2023-02-15T13:15:33.105Z,28.30
2023-02-15T13:18:02.560Z,25.83
2023-02-15T13:20:34.364Z,26.27
2023-02-15T13:23:06.304Z,25.07
2023-02-15T13:25:42.588Z,25.77
2023-02-15T13:28:16.699Z,24.17
2023-02-15T13:30:48.822Z,22.33
2023-02-15T13:33:29.459Z,24.30
2023-02-15T13:36:08.729Z,22.57
2023-02-15T13:38:53.886Z,26.77
2023-02-15T13:41:28.565Z,23.97
2023-02-15T13:44:06.248Z,23.77
2023-02-15T13:46:55.807Z,24.07
2023-02-15T13:49:39.826Z,25.10
2023-02-15T13:52:20.662Z,23.67
2023-02-15T13:55:04.552Z,25.70
2023-02-15T13:58:08.122Z,24.27
2023-02-15T14:00:45.579Z,28.73
2023-02-15T14:04:03.429Z,26.57
2023-02-15T14:06:49.754Z,25.03
2023-02-15T14:09:33.058Z,25.73
2023-02-15T14:12:20.802Z,24.93
2023-02-15T14:15:08.945Z,26.43
2023-02-15T14:17:49.182Z,29.77
2023-02-15T14:20:26.137Z,23.30
2023-02-15T14:23:06.928Z,26.63
2023-02-15T14:25:43.489Z,26.70
2023-02-15T14:28:15.560Z,27.87
2023-02-15T14:30:49.183Z,28.87
2023-02-15T14:33:34.960Z,24.00
2023-02-15T14:36:07.273Z,25.63
2023-02-15T14:38:50.934Z,26.80
2023-02-15T14:41:27.305Z,25.83
2023-02-15T14:44:03.557Z,26.63
2023-02-15T14:46:38.711Z,27.87
2023-02-15T14:49:13.041Z,28.90
2023-02-15T14:52:06.282Z,28.40
2023-02-15T14:55:00.744Z,27.97
2023-02-15T14:57:36.423Z,27.27
2023-02-15T15:00:35.714Z,26.77
2023-02-15T15:03:12.234Z,26.77
2023-02-15T15:05:53.557Z,26.10
2023-02-15T15:08:33.846Z,25.30
2023-02-15T15:11:43.441Z,26.67
2023-02-15T15:14:43.144Z,26.73
2023-02-15T15:17:37.654Z,30.70
2023-02-15T15:20:14.640Z,28.03
2023-02-15T15:22:44.716Z,29.13
2023-02-15T15:25:45.806Z,29.17
2023-02-15T15:28:53.029Z,29.43
2023-02-15T15:31:27.222Z,27.87
2023-02-15T15:34:21.756Z,25.77
2023-02-15T15:37:45.587Z,28.73
2023-02-15T15:40:38.551Z,28.93
2023-02-15T15:44:03.120Z,28.17
2023-02-15T15:46:59.586Z,29.23
2023-02-15T15:49:32.583Z,30.60
2023-02-15T15:52:04.069Z,22.30
2023-02-15T15:54:32.899Z,26.47
2023-02-15T15:57:04.934Z,25.80
2023-02-15T15:59:34.937Z,25.70
2023-02-15T16:02:08.945Z,29.33
2023-02-15T16:04:37.893Z,27.23
2023-02-15T16:07:24.941Z,24.70
2023-02-15T16:09:57.988Z,27.30
2023-02-15T16:12:28.161Z,27.60
2023-02-15T16:14:57.556Z,25.33
2023-02-15T16:17:32.648Z,23.97
2023-02-15T16:20:08.229Z,25.07
2023-02-15T16:22:37.396Z,27.23
2023-02-15T16:25:36.747Z,28.57
2023-02-15T16:28:10.338Z,20.63
2023-02-15T16:30:40.769Z,28.43
2023-02-15T16:33:12.661Z,22.93
2023-02-15T16:35:43.645Z,21.87
2023-02-15T16:38:12.790Z,25.43
2023-02-15T16:40:52.730Z,26.67
2023-02-15T16:43:28.058Z,26.93
2023-02-15T16:46:06.098Z,21.23
2023-02-15T16:48:43.720Z,25.27
2023-02-15T16:51:20.582Z,19.03
2023-02-15T16:53:49.954Z,22.90
2023-02-15T16:56:25.205Z,21.27
2023-02-15T16:58:56.736Z,25.67
2023-02-15T17:01:28.581Z,22.70
2023-02-15T17:04:14.585Z,26.23
2023-02-15T17:06:43.248Z,27.77
2023-02-15T17:09:20.573Z,24.37
2023-02-15T17:11:49.225Z,27.33
2023-02-15T17:14:28.874Z,23.43
2023-02-15T17:17:02.733Z,25.00
2023-02-15T17:19:35.006Z,21.03
2023-02-15T17:22:07.325Z,24.77
2023-02-15T17:24:39.508Z,27.07
2023-02-15T17:27:16.813Z,24.97
2023-02-15T17:29:48.904Z,21.00
2023-02-15T17:32:21.945Z,20.03
2023-02-15T17:35:01.257Z,26.40
2023-02-15T17:37:33.198Z,24.43
2023-02-15T17:40:07.653Z,22.57
2023-02-15T17:42:36.301Z,26.13
2023-02-15T17:45:05.272Z,21.17
2023-02-15T17:47:33.876Z,25.87
2023-02-15T17:50:06.651Z,26.97
2023-02-15T17:52:35.339Z,24.83
2023-02-15T17:55:31.597Z,23.10
2023-02-15T17:58:00.525Z,24.63
2023-02-15T18:00:46.500Z,24.87
2023-02-15T18:03:32.605Z,22.97
2023-02-15T18:06:20.195Z,26.10
2023-02-15T18:09:06.282Z,21.53
2023-02-15T18:11:40.819Z,27.33
2023-02-15T18:14:11.461Z,27.07
2023-02-15T18:16:43.333Z,25.77
2023-02-15T18:19:16.690Z,24.97
2023-02-15T18:21:47.134Z,27.27
2023-02-15T18:24:19.560Z,27.20
2023-02-15T18:26:48.293Z,27.27
2023-02-15T18:29:17.222Z,25.53
2023-02-15T18:31:49.124Z,27.67
2023-02-15T18:34:24.860Z,22.03
2023-02-15T18:36:55.189Z,19.97
2023-02-15T18:39:37.038Z,23.83
2023-02-15T18:42:06.196Z,26.50
2023-02-15T18:44:34.913Z,29.63
2023-02-15T18:47:03.463Z,23.60
2023-02-15T18:49:32.185Z,27.83
2023-02-15T18:52:02.874Z,26.53
2023-02-15T18:54:31.765Z,25.93
2023-02-15T18:57:02.651Z,23.43
2023-02-15T18:59:32.535Z,28.77
2023-02-15T19:02:01.458Z,17.80
2023-02-15T19:04:30.170Z,23.50
2023-02-15T19:06:58.797Z,20.53
2023-02-15T19:09:29.509Z,27.67
2023-02-15T19:11:59.776Z,21.50
2023-02-15T19:14:30.892Z,23.60
2023-02-15T19:17:01.189Z,23.27
2023-02-15T19:19:29.851Z,25.53
2023-02-15T19:21:58.539Z,23.27
2023-02-15T19:24:38.062Z,22.80
2023-02-15T19:27:08.562Z,23.43
2023-02-15T19:29:37.782Z,27.43
2023-02-15T19:32:06.673Z,22.90
2023-02-15T19:34:35.396Z,28.13
2023-02-15T19:37:04.664Z,23.23
2023-02-15T19:39:39.181Z,26.40
2023-02-15T19:42:11.494Z,28.73
2023-02-15T19:44:43.754Z,26.30
2023-02-15T19:47:14.447Z,22.00
2023-02-15T19:49:43.136Z,27.70
2023-02-15T19:52:18.713Z,28.77
2023-02-15T19:54:50.207Z,24.07
2023-02-15T19:57:19.430Z,20.40
2023-02-15T19:59:48.630Z,29.57
2023-02-15T20:02:20.245Z,19.13
2023-02-15T20:04:49.094Z,24.93
2023-02-15T20:07:23.730Z,22.13
2023-02-15T20:09:54.357Z,26.03
2023-02-15T20:12:25.261Z,26.53
2023-02-15T20:14:57.567Z,28.30
2023-02-15T20:17:26.458Z,27.77
2023-02-15T20:19:56.196Z,23.80
2023-02-15T20:22:27.464Z,22.43
2023-02-15T20:24:58.373Z,24.50
2023-02-15T20:27:27.225Z,29.63
2023-02-15T20:29:56.913Z,18.57
2023-02-15T20:32:26.083Z,31.27
2023-02-15T20:34:54.890Z,24.83
2023-02-15T20:37:26.493Z,23.40
2023-02-15T20:39:55.526Z,23.90
2023-02-15T20:42:25.579Z,19.43
2023-02-15T20:44:54.328Z,28.93
2023-02-15T20:47:23.041Z,28.43
2023-02-15T20:49:52.814Z,26.77
2023-02-15T20:52:22.274Z,26.57
2023-02-15T20:54:51.160Z,32.63
2023-02-15T20:57:20.217Z,25.37
2023-02-15T20:59:50.492Z,28.47
2023-02-15T21:02:22.994Z,27.13
2023-02-15T21:04:51.715Z,26.93
2023-02-15T21:07:22.587Z,29.60
2023-02-15T21:09:52.409Z,31.40
2023-02-15T21:12:22.178Z,29.13
2023-02-15T21:14:52.325Z,31.57
2023-02-15T21:17:21.007Z,34.50
2023-02-15T21:19:49.949Z,32.00
2023-02-15T21:22:21.540Z,27.47
2023-02-15T21:24:54.800Z,27.77
2023-02-15T21:27:23.637Z,26.57
2023-02-15T21:29:54.080Z,27.20
2023-02-15T21:32:23.042Z,27.03
2023-02-15T21:34:54.805Z,25.13
2023-02-15T21:37:33.354Z,25.27
2023-02-15T21:40:03.252Z,21.73
2023-02-15T21:42:49.542Z,28.13
2023-02-15T21:45:37.690Z,23.60
2023-02-15T21:48:06.485Z,19.47
2023-02-15T21:50:54.331Z,23.70
2023-02-15T21:53:26.425Z,24.10
2023-02-15T21:55:57.913Z,27.00
2023-02-15T21:58:29.202Z,24.33
2023-02-15T22:01:02.155Z,22.03
2023-02-15T22:03:34.856Z,25.07
2023-02-15T22:06:03.885Z,24.63
2023-02-15T22:08:32.767Z,23.13
2023-02-15T22:11:02.306Z,25.67
2023-02-15T22:13:33.264Z,23.00
2023-02-15T22:16:04.071Z,22.93
2023-02-15T22:18:34.459Z,26.60
2023-02-15T22:21:04.446Z,22.83
2023-02-15T22:23:33.549Z,20.20
2023-02-15T22:26:06.394Z,23.63
2023-02-15T22:28:37.028Z,21.60
2023-02-15T22:31:12.323Z,24.37
2023-02-15T22:33:41.606Z,24.23
2023-02-15T22:36:22.971Z,24.47
2023-02-15T22:38:51.731Z,23.87
2023-02-15T22:41:21.134Z,21.53
2023-02-15T22:43:50.542Z,23.00
2023-02-15T22:46:23.627Z,25.33
2023-02-15T22:48:53.055Z,27.67
2023-02-15T22:51:25.162Z,22.93
2023-02-15T22:53:54.411Z,25.07
2023-02-15T22:56:27.485Z,22.43
2023-02-15T22:59:01.253Z,21.67
2023-02-15T23:01:34.451Z,24.10
2023-02-15T23:04:04.421Z,23.63
2023-02-15T23:06:35.910Z,26.03
2023-02-15T23:09:05.056Z,25.67
2023-02-15T23:11:33.779Z,25.60
2023-02-15T23:14:03.916Z,20.93
2023-02-15T23:19:18.264Z,24.80
2023-02-15T23:21:47.424Z,28.90
2023-02-15T23:24:20.621Z,28.30
2023-02-15T23:26:51.186Z,24.87
2023-02-15T23:29:24.835Z,27.37
2023-02-15T23:31:56.237Z,31.47
2023-02-15T23:34:29.558Z,27.33
2023-02-15T23:37:00.244Z,29.13
2023-02-15T23:39:48.276Z,25.17
2023-02-15T23:42:20.631Z,23.43
2023-02-15T23:44:51.824Z,24.23
2023-02-15T23:47:44.213Z,25.63
2023-02-15T23:50:18.913Z,25.60
2023-02-15T23:52:47.984Z,23.60
2023-02-15T23:55:18.315Z,25.63
2023-02-15T23:57:48.058Z,27.53
